createdAt,value
2022-12-22T00:02:22.605Z,30.58
2022-12-22T00:05:08.530Z,37.22
2022-12-22T00:07:54.531Z,35.85
2022-12-22T00:10:40.323Z,33.15
2022-12-22T00:13:29.845Z,27.05
2022-12-22T00:16:16.663Z,27.08
2022-12-22T00:19:02.384Z,24.90
2022-12-22T00:21:48.640Z,26.83
2022-12-22T00:24:34.626Z,26.15
2022-12-22T00:27:21.094Z,26.13
2022-12-22T00:30:07.823Z,25.15
2022-12-22T00:32:56.214Z,24.00
2022-12-22T00:35:43.845Z,23.20
2022-12-22T00:38:35.471Z,28.67
2022-12-22T00:41:21.079Z,25.85
2022-12-22T00:44:07.095Z,24.52
2022-12-22T00:46:54.771Z,21.30
2022-12-22T00:49:42.742Z,25.25
2022-12-22T00:52:28.444Z,22.80
2022-12-22T00:55:14.297Z,23.83
2022-12-22T00:58:01.530Z,21.92
2022-12-22T01:00:48.098Z,22.75
2022-12-22T01:03:34.102Z,23.38
2022-12-22T01:06:20.845Z,24.52
2022-12-22T01:09:07.025Z,23.55
2022-12-22T01:11:54.057Z,21.48
2022-12-22T01:14:40.102Z,25.10
2022-12-22T01:17:26.291Z,24.00
2022-12-22T01:20:11.761Z,26.05
2022-12-22T01:22:57.989Z,24.40
2022-12-22T01:25:43.531Z,24.80
2022-12-22T01:28:35.607Z,27.65
2022-12-22T01:31:46.993Z,26.45
2022-12-22T01:34:32.733Z,24.00
2022-12-22T01:37:18.810Z,21.70
2022-12-22T01:40:04.814Z,24.05
2022-12-22T01:42:52.585Z,26.15
2022-12-22T01:45:44.827Z,22.58
2022-12-22T01:48:32.220Z,25.45
2022-12-22T01:51:20.593Z,23.98
2022-12-22T01:54:06.611Z,26.52
2022-12-22T01:56:52.645Z,25.30
2022-12-22T01:59:38.576Z,24.88
2022-12-22T02:02:25.635Z,24.35
2022-12-22T02:05:12.011Z,26.35
2022-12-22T02:08:04.057Z,24.77
2022-12-22T02:10:59.141Z,26.05
2022-12-22T02:14:08.283Z,26.13
2022-12-22T02:17:15.660Z,24.35
2022-12-22T02:20:24.818Z,26.55
2022-12-22T02:23:39.709Z,26.23
2022-12-22T02:26:40.257Z,22.55
2022-12-22T02:29:26.460Z,25.48
2022-12-22T02:32:13.141Z,25.30
2022-12-22T02:34:58.590Z,24.75
2022-12-22T02:38:10.427Z,24.73
2022-12-22T02:41:10.091Z,26.77
2022-12-22T02:43:59.287Z,26.38
2022-12-22T02:46:50.664Z,26.05
2022-12-22T02:49:41.434Z,24.33
2022-12-22T02:52:34.234Z,23.75
2022-12-22T02:55:20.709Z,28.00
2022-12-22T02:58:09.514Z,26.38
2022-12-22T03:00:56.216Z,25.10
2022-12-22T03:03:42.592Z,27.65
2022-12-22T03:06:28.391Z,24.27
2022-12-22T03:09:14.269Z,23.35
2022-12-22T03:12:00.090Z,24.95
2022-12-22T03:14:46.011Z,23.52
2022-12-22T03:17:32.268Z,25.67
2022-12-22T03:20:17.829Z,24.40
2022-12-22T03:23:03.710Z,25.17
2022-12-22T03:25:49.273Z,24.02
2022-12-22T03:28:16.437Z,21.73
2022-12-22T03:30:43.658Z,22.00
2022-12-22T03:33:10.651Z,23.77
2022-12-22T03:35:37.676Z,24.35
2022-12-22T03:38:04.553Z,22.77
2022-12-22T03:40:32.275Z,24.80
2022-12-22T03:43:17.829Z,22.95
2022-12-22T03:46:03.982Z,21.55
2022-12-22T03:48:31.391Z,22.77
2022-12-22T03:50:58.355Z,21.55
2022-12-22T03:53:25.672Z,20.65
2022-12-22T03:55:52.630Z,22.00
2022-12-22T03:58:19.682Z,26.23
2022-12-22T04:00:46.580Z,22.73
2022-12-22T04:03:14.670Z,23.20
2022-12-22T04:05:42.196Z,22.85
2022-12-22T04:08:09.588Z,24.75
2022-12-22T04:10:55.209Z,23.33
2022-12-22T04:13:22.211Z,25.08
2022-12-22T04:15:49.327Z,26.65
2022-12-22T04:18:16.462Z,24.50
2022-12-22T04:20:43.539Z,28.88
2022-12-22T04:23:10.773Z,23.45
2022-12-22T04:25:37.881Z,28.42
2022-12-22T04:28:05.229Z,27.15
2022-12-22T04:30:33.034Z,27.75
2022-12-22T04:33:00.422Z,26.38
2022-12-22T04:35:27.392Z,26.33
2022-12-22T04:37:54.772Z,27.77
2022-12-22T04:40:21.826Z,25.17
2022-12-22T04:42:48.879Z,27.58
2022-12-22T04:45:16.377Z,26.35
2022-12-22T04:47:43.428Z,24.20
2022-12-22T04:50:10.778Z,25.48
2022-12-22T04:52:39.219Z,23.52
2022-12-22T04:55:06.833Z,24.48
2022-12-22T04:57:40.088Z,21.75
2022-12-22T05:00:08.561Z,24.42
2022-12-22T05:02:36.142Z,23.55
2022-12-22T05:05:03.835Z,23.67
2022-12-22T05:07:31.235Z,24.75
2022-12-22T05:09:58.403Z,25.23
2022-12-22T05:12:44.191Z,26.65
2022-12-22T05:15:11.387Z,22.48
2022-12-22T05:17:38.332Z,23.35
2022-12-22T05:20:06.083Z,23.45
2022-12-22T05:22:33.268Z,23.02
2022-12-22T05:25:00.791Z,23.15
2022-12-22T05:27:28.076Z,23.67
2022-12-22T05:29:55.335Z,21.38
2022-12-22T05:32:22.532Z,20.10
2022-12-22T05:34:49.446Z,23.73
2022-12-22T05:37:16.929Z,24.00
2022-12-22T05:39:44.360Z,21.10
2022-12-22T05:42:11.933Z,20.25
2022-12-22T05:44:39.212Z,23.08
2022-12-22T05:47:06.260Z,20.67
2022-12-22T05:49:33.447Z,21.70
2022-12-22T05:52:00.519Z,21.00
2022-12-22T05:54:27.699Z,22.52
2022-12-22T05:56:55.088Z,22.83
2022-12-22T05:59:22.352Z,18.55
2022-12-22T06:01:49.839Z,20.00
2022-12-22T06:04:16.986Z,20.80
2022-12-22T06:06:44.438Z,18.95
2022-12-22T06:09:11.520Z,17.23
2022-12-22T06:11:38.931Z,20.05
2022-12-22T06:14:05.891Z,22.48
2022-12-22T06:16:33.242Z,18.27
2022-12-22T06:19:00.518Z,19.33
2022-12-22T06:21:28.037Z,19.05
2022-12-22T06:23:55.612Z,18.40
2022-12-22T06:26:22.946Z,16.08
2022-12-22T06:28:50.142Z,17.23
2022-12-22T06:31:17.263Z,16.42
2022-12-22T06:33:45.675Z,14.98
2022-12-22T06:36:13.223Z,16.42
2022-12-22T06:38:40.067Z,22.00
2022-12-22T06:41:07.071Z,21.70
2022-12-22T06:43:34.348Z,16.08
2022-12-22T06:46:01.614Z,22.20
2022-12-22T06:48:28.538Z,21.27
2022-12-22T06:51:00.015Z,23.77
2022-12-22T06:53:27.566Z,15.10
2022-12-22T06:55:54.592Z,13.57
2022-12-22T06:58:21.621Z,12.38
2022-12-22T07:00:49.763Z,10.57
2022-12-22T07:03:17.224Z,15.80
2022-12-22T07:05:46.430Z,13.45
2022-12-22T07:08:14.215Z,13.65
2022-12-22T07:10:59.705Z,14.02
2022-12-22T07:16:00.547Z,11.98
2022-12-22T07:21:01.024Z,12.05
2022-12-22T07:23:28.803Z,13.50
2022-12-22T07:25:56.280Z,35.08
2022-12-22T07:28:24.078Z,31.67
2022-12-22T07:30:52.804Z,53.50
2022-12-22T07:33:20.331Z,11.70
2022-12-22T07:35:47.847Z,7.90
2022-12-22T07:38:14.931Z,8.57
2022-12-22T07:40:44.298Z,7.65
2022-12-22T07:43:12.837Z,7.50
2022-12-22T07:45:39.852Z,9.02
2022-12-22T07:48:26.978Z,8.18
2022-12-22T07:50:55.932Z,7.63
2022-12-22T07:53:23.198Z,19.02
2022-12-22T07:55:50.721Z,6.60
2022-12-22T07:58:17.974Z,25.10
2022-12-22T08:00:44.951Z,8.73
2022-12-22T08:03:11.821Z,7.82
2022-12-22T08:05:39.347Z,7.75
2022-12-22T08:08:06.260Z,8.02
2022-12-22T08:10:33.900Z,7.78
2022-12-22T08:13:00.773Z,8.48
2022-12-22T08:15:28.268Z,8.32
2022-12-22T08:17:56.923Z,8.10
2022-12-22T08:20:24.053Z,6.65
2022-12-22T08:22:51.328Z,6.53
2022-12-22T08:25:18.694Z,10.90
2022-12-22T08:27:50.178Z,7.15
2022-12-22T08:30:17.698Z,6.68
2022-12-22T08:32:47.761Z,8.43
2022-12-22T08:35:15.494Z,6.85
2022-12-22T08:37:43.676Z,73.05
2022-12-22T08:40:14.852Z,72.63
2022-12-22T08:42:42.521Z,37.17
2022-12-22T08:45:11.607Z,35.90
2022-12-22T08:47:39.402Z,24.83
2022-12-22T08:50:07.226Z,28.80
2022-12-22T08:52:34.652Z,14.50
2022-12-22T08:55:01.703Z,15.45
2022-12-22T08:57:30.064Z,17.85
2022-12-22T08:59:57.698Z,15.15
2022-12-22T09:02:25.259Z,13.55
2022-12-22T09:04:55.328Z,17.20
2022-12-22T09:07:22.627Z,14.35
2022-12-22T09:09:50.250Z,10.55
2022-12-22T09:12:17.478Z,10.32
2022-12-22T09:14:44.930Z,9.93
2022-12-22T09:17:12.380Z,76.78
2022-12-22T09:19:39.839Z,14.65
2022-12-22T09:22:07.299Z,6.03
2022-12-22T09:24:34.604Z,5.63
2022-12-22T09:27:03.734Z,5.45
2022-12-22T09:29:31.101Z,6.03
2022-12-22T09:31:58.770Z,4.90
2022-12-22T09:34:26.248Z,5.40
2022-12-22T09:36:53.349Z,5.38
2022-12-22T09:39:26.708Z,4.45
2022-12-22T09:41:57.208Z,5.95
2022-12-22T09:44:29.979Z,4.13
2022-12-22T09:47:00.188Z,3.58
2022-12-22T09:49:27.792Z,8.35
2022-12-22T09:51:58.952Z,4.22
2022-12-22T09:54:27.700Z,5.63
2022-12-22T09:56:54.979Z,4.03
2022-12-22T09:59:22.546Z,3.70
2022-12-22T10:02:08.113Z,4.13
2022-12-22T10:05:11.966Z,3.30
2022-12-22T10:07:42.613Z,2.60
2022-12-22T10:10:25.401Z,3.28
2022-12-22T10:12:55.588Z,3.50
2022-12-22T10:15:23.396Z,2.28
2022-12-22T10:17:52.615Z,3.38
2022-12-22T10:20:22.745Z,3.17
2022-12-22T10:23:02.130Z,3.05
2022-12-22T10:26:25.924Z,3.80
2022-12-22T10:28:37.347Z,3.67
2022-12-22T10:31:13.714Z,3.45
2022-12-22T10:33:46.764Z,3.75
2022-12-22T10:36:21.090Z,3.05
2022-12-22T10:38:55.999Z,3.85
2022-12-22T10:41:26.262Z,2.92
2022-12-22T10:44:02.386Z,3.28
2022-12-22T10:46:32.283Z,2.70
2022-12-22T10:49:22.383Z,3.08
2022-12-22T10:52:30.144Z,2.88
2022-12-22T10:55:22.037Z,2.88
2022-12-22T10:57:50.693Z,3.10
2022-12-22T11:00:26.713Z,3.05
2022-12-22T11:02:56.764Z,3.25
2022-12-22T11:05:24.611Z,3.13
2022-12-22T11:07:51.929Z,2.08
2022-12-22T11:10:22.379Z,3.00
2022-12-22T11:12:59.494Z,2.85
2022-12-22T11:15:31.149Z,2.55
2022-12-22T11:18:12.817Z,3.42
2022-12-22T11:21:22.132Z,3.03
2022-12-22T11:24:00.751Z,3.22
2022-12-22T11:26:49.844Z,2.80
2022-12-22T11:29:26.492Z,3.17
2022-12-22T11:32:14.276Z,3.40
2022-12-22T11:34:56.826Z,2.78
2022-12-22T11:37:24.227Z,3.63
2022-12-22T11:39:59.750Z,3.88
2022-12-22T11:42:27.089Z,3.30
2022-12-22T11:45:08.571Z,4.63
2022-12-22T11:47:57.659Z,4.50
2022-12-22T11:51:00.778Z,3.45
2022-12-22T11:54:10.370Z,3.85
2022-12-22T11:57:08.229Z,3.75
2022-12-22T12:00:20.346Z,3.38
2022-12-22T12:02:56.716Z,2.97
2022-12-22T12:05:35.046Z,2.83
2022-12-22T12:08:05.218Z,1.90
2022-12-22T12:10:34.707Z,2.88
2022-12-22T12:13:25.603Z,2.92
2022-12-22T12:16:01.859Z,3.03
2022-12-22T12:18:41.471Z,3.83
2022-12-22T12:21:23.917Z,3.53
2022-12-22T12:24:12.843Z,6.00
2022-12-22T12:27:13.912Z,5.75
2022-12-22T12:30:13.429Z,5.97
2022-12-22T12:32:51.253Z,6.75
2022-12-22T12:35:24.541Z,6.82
2022-12-22T12:37:56.897Z,8.88
2022-12-22T12:40:53.363Z,10.07
2022-12-22T12:43:20.999Z,10.68
2022-12-22T12:45:49.342Z,10.82
2022-12-22T12:48:23.117Z,11.27
2022-12-22T12:50:50.746Z,11.52
2022-12-22T12:53:19.884Z,12.80
2022-12-22T12:55:50.179Z,12.73
2022-12-22T12:58:35.721Z,12.45
2022-12-22T13:01:05.227Z,10.25
2022-12-22T13:06:51.542Z,10.10
2022-12-22T13:12:49.286Z,9.50
2022-12-22T13:15:37.848Z,10.05
2022-12-22T13:18:11.840Z,9.68
2022-12-22T13:20:39.565Z,9.80
2022-12-22T13:23:12.713Z,13.48
2022-12-22T13:25:48.521Z,10.98
2022-12-22T13:28:17.620Z,11.30
2022-12-22T13:30:49.517Z,10.35
2022-12-22T13:33:20.240Z,10.00
2022-12-22T13:35:52.162Z,9.85
2022-12-22T13:38:40.040Z,9.50
2022-12-22T13:41:23.101Z,9.52
2022-12-22T13:44:01.606Z,10.40
2022-12-22T13:46:28.841Z,10.57
2022-12-22T13:48:57.528Z,9.73
2022-12-22T13:51:28.182Z,11.93
2022-12-22T13:54:08.562Z,12.20
2022-12-22T13:56:43.702Z,11.57
2022-12-22T13:59:29.320Z,14.88
2022-12-22T14:02:00.490Z,12.45
2022-12-22T14:04:29.135Z,12.18
2022-12-22T14:06:56.687Z,13.13
2022-12-22T14:09:27.240Z,13.27
2022-12-22T14:12:00.515Z,19.95
2022-12-22T14:14:30.661Z,23.67
2022-12-22T14:17:00.985Z,31.50
2022-12-22T14:19:33.480Z,24.52
2022-12-22T14:22:02.894Z,23.55
2022-12-22T14:24:38.031Z,27.63
2022-12-22T14:27:06.788Z,22.80
2022-12-22T14:29:33.851Z,18.65
2022-12-22T14:32:05.868Z,31.08
2022-12-22T14:34:35.261Z,20.75
2022-12-22T14:37:02.851Z,17.80
2022-12-22T14:39:32.556Z,15.93
2022-12-22T14:42:04.398Z,15.57
2022-12-22T14:44:38.095Z,13.63
2022-12-22T14:47:15.468Z,14.15
2022-12-22T14:50:23.881Z,13.90
2022-12-22T14:52:52.639Z,14.98
2022-12-22T14:55:30.905Z,14.73
2022-12-22T14:58:00.789Z,14.90
2022-12-22T15:00:29.346Z,16.15
2022-12-22T15:03:02.338Z,14.68
2022-12-22T15:05:39.235Z,23.88
2022-12-22T15:08:09.391Z,25.52
2022-12-22T15:10:42.397Z,28.73
2022-12-22T15:13:22.982Z,18.65
2022-12-22T15:15:51.179Z,29.45
2022-12-22T15:18:19.331Z,19.08
2022-12-22T15:20:46.129Z,16.92
2022-12-22T15:23:17.161Z,20.85
2022-12-22T15:25:45.089Z,14.10
2022-12-22T15:28:12.508Z,17.77
2022-12-22T15:30:40.002Z,14.20
2022-12-22T15:33:15.860Z,15.50
2022-12-22T15:35:43.699Z,15.55
2022-12-22T15:38:19.487Z,17.30
2022-12-22T15:40:47.090Z,41.65
2022-12-22T15:43:53.989Z,18.27
2022-12-22T15:46:03.238Z,31.67
2022-12-22T15:48:35.871Z,28.90
2022-12-22T15:51:05.146Z,18.48
2022-12-22T15:53:33.292Z,20.33
2022-12-22T15:56:01.242Z,24.05
2022-12-22T15:58:32.367Z,20.52
2022-12-22T16:00:59.715Z,20.42
2022-12-22T16:03:27.199Z,20.88
2022-12-22T16:05:54.925Z,24.80
2022-12-22T16:08:29.405Z,22.70
2022-12-22T16:10:57.301Z,22.33
2022-12-22T16:13:27.403Z,25.02
2022-12-22T16:15:57.514Z,21.73
2022-12-22T16:18:25.077Z,23.95
2022-12-22T16:20:52.835Z,29.27
2022-12-22T16:23:25.430Z,22.58
2022-12-22T16:26:00.979Z,34.85
2022-12-22T16:28:29.387Z,39.45
2022-12-22T16:30:57.423Z,24.52
2022-12-22T16:33:24.767Z,31.00
2022-12-22T16:35:53.802Z,30.10
2022-12-22T16:38:21.414Z,36.13
2022-12-22T16:40:51.038Z,23.52
2022-12-22T16:43:51.537Z,43.22
2022-12-22T16:46:21.227Z,27.10
2022-12-22T16:48:56.603Z,23.58
2022-12-22T16:51:34.384Z,26.83
2022-12-22T16:54:01.942Z,35.38
2022-12-22T16:56:30.664Z,31.15
2022-12-22T16:58:58.590Z,27.52
2022-12-22T17:01:47.061Z,25.83
2022-12-22T17:04:18.967Z,47.45
2022-12-22T17:06:48.841Z,24.92
2022-12-22T17:09:20.622Z,31.25
2022-12-22T17:11:48.465Z,30.90
2022-12-22T17:14:30.419Z,29.70
2022-12-22T17:16:58.777Z,26.20
2022-12-22T17:19:26.502Z,26.95
2022-12-22T17:21:54.183Z,30.67
2022-12-22T17:24:28.354Z,24.50
2022-12-22T17:27:01.361Z,22.80
2022-12-22T17:29:30.258Z,25.45
2022-12-22T17:31:57.708Z,23.90
2022-12-22T17:34:25.259Z,26.30
2022-12-22T17:36:52.448Z,21.55
2022-12-22T17:39:20.773Z,24.08
2022-12-22T17:41:52.320Z,21.60
2022-12-22T17:44:25.464Z,24.15
2022-12-22T17:46:53.162Z,19.65
2022-12-22T17:49:22.680Z,34.92
2022-12-22T17:51:51.097Z,18.83
2022-12-22T17:54:23.410Z,22.88
2022-12-22T17:56:50.812Z,19.95
2022-12-22T17:59:17.575Z,18.83
2022-12-22T18:01:45.018Z,19.10
2022-12-22T18:04:12.499Z,18.58
2022-12-22T18:06:39.963Z,19.33
2022-12-22T18:09:07.699Z,17.27
2022-12-22T18:11:37.093Z,18.73
2022-12-22T18:14:06.201Z,16.92
2022-12-22T18:16:33.534Z,20.05
2022-12-22T18:19:00.761Z,16.98
2022-12-22T18:21:28.231Z,16.88
2022-12-22T18:23:55.096Z,16.38
2022-12-22T18:26:28.720Z,20.98
2022-12-22T18:28:56.155Z,16.10
2022-12-22T18:31:24.422Z,15.05
2022-12-22T18:33:52.235Z,16.02
2022-12-22T18:36:27.692Z,17.40
2022-12-22T18:38:55.136Z,20.08
2022-12-22T18:41:24.174Z,20.35
2022-12-22T18:43:51.750Z,18.23
2022-12-22T18:46:19.841Z,18.95
2022-12-22T18:48:48.166Z,12.48
2022-12-22T18:51:22.603Z,13.48
2022-12-22T18:53:51.394Z,20.50
2022-12-22T18:56:19.134Z,20.95
2022-12-22T18:58:46.831Z,20.40
2022-12-22T19:01:23.651Z,27.30
2022-12-22T19:03:53.975Z,16.95
2022-12-22T19:06:22.879Z,23.30
2022-12-22T19:08:50.966Z,23.35
2022-12-22T19:11:22.390Z,28.00
2022-12-22T19:13:51.369Z,24.00
2022-12-22T19:16:21.891Z,33.08
2022-12-22T19:18:49.209Z,17.05
2022-12-22T19:21:18.089Z,27.30
2022-12-22T19:23:45.587Z,15.60
2022-12-22T19:26:24.002Z,16.60
2022-12-22T19:28:53.969Z,14.48
2022-12-22T19:31:31.032Z,15.40
2022-12-22T19:34:00.378Z,32.63
2022-12-22T19:36:30.157Z,26.38
2022-12-22T19:39:04.153Z,19.50
2022-12-22T19:41:48.449Z,26.17
2022-12-22T19:44:26.925Z,18.83
2022-12-22T19:46:55.267Z,23.73
2022-12-22T19:49:25.218Z,26.48
2022-12-22T19:51:53.090Z,19.33
2022-12-22T19:54:20.097Z,29.88
2022-12-22T19:56:50.345Z,16.85
2022-12-22T19:59:38.069Z,17.02
2022-12-22T20:02:21.829Z,19.58
2022-12-22T20:04:50.358Z,18.45
2022-12-22T20:07:20.035Z,27.17
2022-12-22T20:09:47.939Z,22.42
2022-12-22T20:12:37.638Z,24.70
2022-12-22T20:15:26.823Z,33.03
2022-12-22T20:17:55.750Z,25.88
2022-12-22T20:20:27.659Z,22.73
2022-12-22T20:23:00.030Z,24.80
2022-12-22T20:25:28.840Z,23.83
2022-12-22T20:27:56.916Z,25.52
2022-12-22T20:30:27.542Z,18.88
2022-12-22T20:32:54.870Z,22.45
2022-12-22T20:35:23.739Z,19.77
2022-12-22T20:37:51.493Z,27.15
2022-12-22T20:40:30.852Z,21.55
2022-12-22T20:42:58.880Z,20.10
2022-12-22T20:45:30.213Z,16.60
2022-12-22T20:47:59.263Z,18.35
2022-12-22T20:50:29.488Z,15.18
2022-12-22T20:52:57.211Z,14.73
2022-12-22T20:55:26.867Z,15.52
2022-12-22T20:57:54.204Z,14.52
2022-12-22T21:00:25.769Z,15.80
2022-12-22T21:02:53.580Z,18.58
2022-12-22T21:05:22.072Z,15.60
2022-12-22T21:07:50.103Z,17.00
2022-12-22T21:10:26.645Z,22.40
2022-12-22T21:12:54.128Z,16.90
2022-12-22T21:15:24.521Z,15.10
2022-12-22T21:17:58.109Z,14.80
2022-12-22T21:20:27.990Z,13.25
2022-12-22T21:22:55.381Z,12.35
2022-12-22T21:25:23.379Z,14.80
2022-12-22T21:27:51.111Z,13.13
2022-12-22T21:30:24.047Z,11.70
2022-12-22T21:32:52.194Z,15.25
2022-12-22T21:35:22.627Z,17.10
2022-12-22T21:37:50.799Z,16.23
2022-12-22T21:40:23.762Z,15.80
2022-12-22T21:42:52.086Z,13.90
2022-12-22T21:45:21.987Z,15.07
2022-12-22T21:47:49.543Z,13.70
2022-12-22T21:50:22.121Z,13.68
2022-12-22T21:55:26.282Z,14.35
2022-12-22T21:57:54.041Z,14.93
2022-12-22T22:00:22.322Z,13.93
2022-12-22T22:02:50.413Z,13.35
2022-12-22T22:05:35.722Z,14.02
2022-12-22T22:10:36.699Z,13.38
2022-12-22T22:13:04.320Z,13.80
2022-12-22T22:15:34.184Z,12.65
2022-12-22T22:18:06.832Z,16.77
2022-12-22T22:20:34.769Z,14.25
2022-12-22T22:23:01.760Z,13.00
2022-12-22T22:25:28.806Z,12.63
2022-12-22T22:27:59.525Z,12.48
2022-12-22T22:30:27.514Z,19.48
2022-12-22T22:32:55.744Z,14.00
2022-12-22T22:35:24.123Z,12.95
2022-12-22T22:37:51.807Z,15.10
2022-12-22T22:40:21.647Z,13.15
2022-12-22T22:42:49.116Z,14.77
2022-12-22T22:45:23.472Z,10.73
2022-12-22T22:47:51.549Z,12.60
2022-12-22T22:50:21.942Z,13.65
2022-12-22T22:52:49.328Z,11.90
2022-12-22T22:55:16.983Z,13.43
2022-12-22T22:57:44.205Z,15.07
2022-12-22T23:00:13.703Z,13.18
2022-12-22T23:02:41.239Z,12.38
2022-12-22T23:05:08.885Z,13.32
2022-12-22T23:07:36.725Z,14.98
2022-12-22T23:10:05.333Z,14.27
2022-12-22T23:12:32.789Z,12.82
2022-12-22T23:15:02.268Z,10.88
2022-12-22T23:17:29.570Z,12.20
2022-12-22T23:19:56.432Z,11.82
2022-12-22T23:22:24.169Z,11.73
2022-12-22T23:24:51.214Z,13.40
2022-12-22T23:27:18.385Z,12.65
2022-12-22T23:29:45.495Z,11.70
2022-12-22T23:32:12.382Z,13.13
2022-12-22T23:34:39.491Z,14.27
2022-12-22T23:37:06.427Z,13.18
2022-12-22T23:39:33.372Z,13.98
2022-12-22T23:42:00.447Z,13.93
2022-12-22T23:44:27.500Z,13.57
2022-12-22T23:46:54.718Z,13.85
2022-12-22T23:49:21.650Z,14.68
2022-12-22T23:51:48.681Z,14.73
2022-12-22T23:54:16.052Z,13.85
2022-12-22T23:56:43.158Z,14.10
2022-12-22T23:59:10.634Z,13.48
